Thursday, January 17, 2019, 8:27 PM EST
Back to Local

KIPT, Williamsport-lycoming County

Location: Montoursville, PA, United States Lat: 41.25
Local Time: 8:27 PM EST ( 1:27 GMT) Lon: -76.917
Time Zone: US/Eastern Elev: 528 ft

Show me the last for .
Show Decoded

2019-01-17 20:06 METAR KIPT 180106Z 07006KT 9SM -SN OVC014 M03/M06 A3019 RMK AO2 P0000 T10281061
                 =
2019-01-17 19:54 METAR KIPT 180054Z 09008KT 9SM -SN BKN015 OVC024 M03/M06 A3019 RMK AO2 SLP232
                 P0000 T10281061 =
2019-01-17 19:31 METAR KIPT 180031Z VRB05KT 8SM -SN BKN015 BKN020 OVC055 M03/M06 A3019 RMK AO2
                 P0000 T10281061 =
2019-01-17 18:54 METAR KIPT 172354Z VRB04KT 6SM -SN BKN033 OVC055 M02/M08 A3020 RMK AO2
                 SNB00E12B45 SLP233 P0000 60000 T10221083 11006 21028 55010 =
2019-01-17 17:54 METAR KIPT 172254Z 08006KT 10SM OVC035 M02/M11 A3019 RMK AO2 SLP232 T10171111 =
2019-01-17 16:54 METAR KIPT 172154Z 14005KT 10SM OVC035 M02/M11 A3021 RMK AO2 SLP237 T10171111 =
2019-01-17 15:54 METAR KIPT 172054Z VRB04KT 10SM OVC040 M02/M12 A3023 RMK AO2 SLP243 T10171117
                 56022 =
2019-01-17 14:54 METAR KIPT 171954Z 10006KT 10SM CLR M01/M12 A3023 RMK AO2 SLP243 T10061117 =
2019-01-17 13:54 METAR KIPT 171854Z 12003KT 10SM CLR M02/M12 A3025 RMK AO2 SLP252 T10171117 =
2019-01-17 12:54 METAR KIPT 171754Z VRB03KT 10SM CLR M02/M12 A3029 RMK AO2 SLP265 T10221117 11022
                 21067 58031 =
2019-01-17 11:54 METAR KIPT 171654Z 13005KT 10SM CLR M03/M12 A3033 RMK AO2 SLP278 T10281122 =
2019-01-17 10:54 METAR KIPT 171554Z 10004KT 10SM CLR M03/M12 A3038 RMK AO2 SLP295 T10331122 =
2019-01-17 09:54 METAR KIPT 171454Z 12004KT 10SM CLR M05/M12 A3038 RMK AO2 SLP296 T10501117 51008
                 =
2019-01-17 08:54 METAR KIPT 171354Z 08004KT 10SM CLR M06/M12 A3038 RMK AO2 SLP295 T10561117 =
2019-01-17 07:54 METAR KIPT 171254Z 00000KT 10SM CLR M06/M12 A3037 RMK AO2 SLP292 T10611117 =
2019-01-17 06:54 METAR KIPT 171154Z 00000KT 10SM CLR M07/M11 A3036 RMK AO2 SLP288 T10671111 11039
                 21072 53011 =
2019-01-17 05:54 METAR KIPT 171054Z AUTO 29003KT 10SM CLR M07/M12 A3035 RMK AO2 SLP283 T10671117
                 =
2019-01-17 04:54 METAR KIPT 170954Z AUTO 32003KT 10SM CLR M07/M12 A3034 RMK AO2 SLP280 T10671117
                 =
2019-01-17 03:54 METAR KIPT 170854Z AUTO 32005KT 10SM CLR M06/M12 A3033 RMK AO2 SLP277 T10611117
                 50011 =
2019-01-17 02:54 METAR KIPT 170754Z AUTO 35003KT 10SM CLR M06/M11 A3033 RMK AO2 SLP277 T10561111
                 =
2019-01-17 01:54 METAR KIPT 170654Z AUTO 30004KT 10SM CLR M05/M12 A3031 RMK AO2 SLP271 T10501122
                 =
2019-01-17 00:54 METAR KIPT 170554Z AUTO 34006KT 10SM CLR M04/M11 A3030 RMK AO2 SLP265 T10391111
                 10017 21044 51018 =
2019-01-16 23:54 METAR KIPT 170454Z AUTO 29005KT 10SM SCT038 M03/M11 A3029 RMK AO2 SLP263
                 T10331106 400281033 =
2019-01-16 22:54 METAR KIPT 170354Z AUTO 31012KT 10SM CLR M02/M11 A3028 RMK AO2 SLP259 T10221111
                 =
2019-01-16 21:54 METAR KIPT 170254Z 32012G18KT 10SM CLR M01/M11 A3024 RMK AO2 SLP247 T10111106
                 51026 =
2019-01-16 20:54 METAR KIPT 170154Z 30010G18KT 10SM FEW048 00/M09 A3022 RMK AO2 SLP240 T00001094
                 =

Support USWX by starting your Amazon purchase here.